Time;durP1;ratioP1;P1;durP2;ratioP2;P2;SDS_P1;SDS_P2;PMS_P1;PMS_P2;Temp;Humidity;BMP_temperature;BMP_pressure;BME280_temperature;BME280_humidity;BME280_pressure;Samples;Min_cycle;Max_cycle;Signal;HPM_P1;HPM_P2
2022/09/20 00:01:12;;;;;;;1.30;1.20;;;9.10;99.90;;;;;;4988002;28;20045;-38
2022/09/20 00:03:42;;;;;;;1.42;1.33;;;9.10;99.90;;;;;;4986909;28;20513;-33
2022/09/20 00:06:12;;;;;;;4.72;1.40;;;9.20;99.90;;;;;;4989691;28;20037;-36
2022/09/20 00:08:37;;;;;;;5.80;2.70;;;9.20;99.90;;;;;;4986770;28;20042;-36
2022/09/20 00:11:05;;;;;;;1.60;1.50;;;9.20;99.90;;;;;;4985030;28;20081;-32
2022/09/20 00:13:32;;;;;;;3.42;1.52;;;9.30;99.90;;;;;;4986532;28;20042;-36
2022/09/20 00:15:59;;;;;;;1.77;1.58;;;9.20;99.90;;;;;;4985600;28;20044;-34
2022/09/20 00:18:25;;;;;;;1.60;1.50;;;9.30;99.90;;;;;;4986182;28;20030;-34
2022/09/20 00:20:51;;;;;;;2.92;1.20;;;9.30;99.90;;;;;;4987860;28;20014;-35
2022/09/20 00:23:18;;;;;;;1.88;1.35;;;9.30;99.90;;;;;;4986209;28;20037;-38
2022/09/20 00:25:45;;;;;;;1.15;1.05;;;9.30;99.90;;;;;;4986923;28;20236;-34
2022/09/20 00:28:11;;;;;;;1.40;1.30;;;9.20;99.90;;;;;;4987730;28;20499;-39
2022/09/20 00:30:37;;;;;;;1.85;1.60;;;9.10;99.90;;;;;;4987867;28;20472;-36
2022/09/20 00:33:03;;;;;;;2.10;1.70;;;9.10;99.90;;;;;;4985173;28;20479;-39
2022/09/20 00:35:30;;;;;;;2.83;1.60;;;9.10;99.90;;;;;;4985488;28;20035;-34
2022/09/20 00:37:56;;;;;;;2.00;1.42;;;9.10;99.90;;;;;;4984247;28;20036;-37
2022/09/20 00:40:25;;;;;;;1.65;1.52;;;9.10;99.90;;;;;;4984380;28;20056;-34
2022/09/20 00:42:52;;;;;;;2.20;1.65;;;9.10;99.90;;;;;;4985678;28;20034;-38
2022/09/20 00:45:24;;;;;;;1.77;1.48;;;9.10;99.90;;;;;;4986319;28;20041;-36
2022/09/20 00:48:02;;;;;;;2.20;1.35;;;9.10;99.90;;;;;;4986775;28;20030;-38
2022/09/20 00:50:36;;;;;;;5.25;1.45;;;9.10;99.90;;;;;;4992446;28;20033;-38
2022/09/20 00:53:23;;;;;;;1.60;1.10;;;9.10;99.90;;;;;;4987386;28;20478;-37
2022/09/20 00:56:05;;;;;;;2.45;1.60;;;9.10;99.90;;;;;;4985710;28;20037;-37
2022/09/20 00:58:38;;;;;;;1.73;1.50;;;9.10;99.90;;;;;;4986763;28;20112;-36
2022/09/20 01:01:05;;;;;;;1.77;1.65;;;9.00;99.90;;;;;;4987604;28;20060;-37
2022/09/20 01:03:34;;;;;;;2.20;1.45;;;9.00;99.90;;;;;;4985323;28;20085;-41
2022/09/20 01:06:06;;;;;;;1.17;1.10;;;9.00;99.90;;;;;;4988203;28;20026;-39
2022/09/20 01:08:34;;;;;;;1.42;1.33;;;9.00;99.90;;;;;;4987512;28;20030;-41
2022/09/20 01:11:00;;;;;;;1.90;1.50;;;8.90;99.90;;;;;;4986012;28;20068;-39
2022/09/20 01:13:25;;;;;;;1.40;1.30;;;8.90;99.90;;;;;;4968920;28;21754;-39
2022/09/20 01:15:52;;;;;;;1.95;1.40;;;8.80;99.90;;;;;;4985483;28;20035;-39
2022/09/20 01:18:19;;;;;;;1.58;1.40;;;8.80;99.90;;;;;;4986703;28;20065;-41
2022/09/20 01:20:47;;;;;;;1.80;1.58;;;8.80;99.90;;;;;;4989368;28;20117;-41
2022/09/20 01:23:27;;;;;;;2.10;1.40;;;8.80;99.90;;;;;;4987974;28;20061;-41
2022/09/20 01:26:08;;;;;;;2.97;1.67;;;8.70;99.90;;;;;;4989612;28;20037;-41
2022/09/20 01:28:34;;;;;;;1.83;1.73;;;8.70;99.90;;;;;;4990302;28;20041;-38
2022/09/20 01:31:06;;;;;;;2.30;1.48;;;8.70;99.90;;;;;;4989642;28;20073;-39
2022/09/20 01:33:51;;;;;;;2.20;1.80;;;8.70;99.90;;;;;;4987353;28;20034;-41
2022/09/20 01:36:30;;;;;;;1.77;1.48;;;8.70;99.90;;;;;;4985514;28;20034;-39
2022/09/20 01:39:03;;;;;;;1.85;1.75;;;8.70;99.90;;;;;;4988167;28;20036;-37
2022/09/20 01:41:47;;;;;;;1.75;1.52;;;8.60;99.90;;;;;;4986828;28;20022;-38
2022/09/20 01:44:50;;;;;;;2.45;1.70;;;8.70;99.90;;;;;;4985278;28;20038;-37
2022/09/20 01:47:19;;;;;;;1.55;1.42;;;8.60;99.90;;;;;;4985861;28;21258;-41
2022/09/20 01:49:54;;;;;;;;;;;8.60;99.90;;;;;;4986201;28;20032;-40
2022/09/20 01:52:56;;;;;;;1.65;1.55;;;8.60;99.90;;;;;;4985006;28;20306;-40
2022/09/20 01:55:40;;;;;;;1.60;1.50;;;8.40;99.90;;;;;;4985323;28;20204;-37
2022/09/20 01:58:31;;;;;;;1.67;1.58;;;8.40;99.90;;;;;;4985671;28;20042;-41
2022/09/20 02:01:17;;;;;;;2.15;1.70;;;8.50;99.90;;;;;;4953556;28;20037;-36
2022/09/20 02:03:52;;;;;;;3.15;1.65;;;8.50;99.90;;;;;;4957074;28;20050;-40
2022/09/20 02:06:31;;;;;;;1.80;1.65;;;8.50;99.90;;;;;;4986851;28;20023;-41
2022/09/20 02:09:17;;;;;;;2.72;1.38;;;8.50;99.90;;;;;;4985860;28;20109;-39
2022/09/20 02:11:58;;;;;;;1.60;1.50;;;8.40;99.90;;;;;;4938979;28;20428;-40
2022/09/20 02:15:03;;;;;;;1.60;1.48;;;8.50;99.90;;;;;;4984884;28;20037;-40
2022/09/20 02:18:11;;;;;;;1.80;1.60;;;8.30;99.90;;;;;;4986435;28;20034;-37
2022/09/20 02:20:55;;;;;;;;;;;8.30;99.90;;;;;;4987191;28;20109;-39
2022/09/20 02:23:49;;;;;;;1.17;1.15;;;8.30;99.90;;;;;;4984253;28;19963;-40
2022/09/20 02:26:27;;;;;;;2.35;1.30;;;8.10;99.90;;;;;;4985643;28;20129;-40
2022/09/20 02:29:02;;;;;;;2.40;1.50;;;8.10;99.90;;;;;;4986003;28;20442;-37
2022/09/20 02:32:22;;;;;;;3.58;1.63;;;8.00;99.90;;;;;;4985343;28;20554;-41
2022/09/20 02:35:10;;;;;;;1.67;1.58;;;8.10;99.90;;;;;;4964293;28;20042;-37
2022/09/20 02:38:17;;;;;;;1.65;1.45;;;8.10;99.90;;;;;;4985565;28;20037;-40
2022/09/20 02:40:46;;;;;;;3.03;1.80;;;8.10;99.90;;;;;;4984809;28;20034;-41
2022/09/20 02:43:32;;;;;;;4.25;2.20;;;8.00;99.90;;;;;;4992682;28;20030;-38
2022/09/20 02:46:12;;;;;;;1.88;1.77;;;8.00;99.90;;;;;;4994091;28;20050;-41
2022/09/20 02:48:58;;;;;;;1.92;1.67;;;8.00;99.90;;;;;;4994824;28;20030;-41
2022/09/20 02:51:38;;;;;;;1.80;1.50;;;7.90;99.90;;;;;;4985781;28;20061;-37
2022/09/20 02:54:41;;;;;;;1.92;1.83;;;7.90;99.90;;;;;;4983781;28;20196;-40
2022/09/20 02:57:41;;;;;;;2.05;1.95;;;8.00;99.90;;;;;;4983208;28;20026;-40
2022/09/20 03:00:15;;;;;;;3.42;1.92;;;7.90;99.90;;;;;;4985185;28;20585;-40
2022/09/20 03:02:56;;;;;;;2.08;1.73;;;7.90;99.90;;;;;;4983132;28;20403;-38
2022/09/20 03:06:06;;;;;;;2.40;2.00;;;8.00;99.90;;;;;;4982823;28;20229;-40
2022/09/20 03:09:03;;;;;;;1.92;1.70;;;8.00;99.90;;;;;;4973471;28;20046;-40
2022/09/20 03:11:42;;;;;;;2.17;1.98;;;8.00;99.90;;;;;;4956254;28;20053;-38
2022/09/20 03:14:23;;;;;;;1.88;1.77;;;8.00;99.90;;;;;;4984601;28;20578;-35
2022/09/20 03:17:10;;;;;;;3.15;2.00;;;7.90;99.90;;;;;;4991512;28;20052;-40
2022/09/20 03:19:54;;;;;;;2.28;2.00;;;7.90;99.90;;;;;;4987983;28;20121;-38
2022/09/20 03:22:36;;;;;;;2.00;1.80;;;8.00;99.90;;;;;;4987386;28;20030;-36
2022/09/20 03:25:26;;;;;;;2.63;1.88;;;8.00;99.90;;;;;;4989567;28;20487;-38
2022/09/20 03:28:29;;;;;;;2.78;1.92;;;7.90;99.90;;;;;;4988436;28;20033;-39
2022/09/20 03:31:03;;;;;;;5.00;2.10;;;7.90;99.90;;;;;;4987500;28;20048;-40
2022/09/20 03:33:54;;;;;;;2.47;2.22;;;7.90;99.90;;;;;;4987693;28;20035;-36
2022/09/20 03:36:37;;;;;;;3.08;2.08;;;8.00;99.90;;;;;;4989362;28;20521;-40
2022/09/20 03:39:06;;;;;;;2.25;1.95;;;8.00;99.90;;;;;;4987846;28;20030;-39
2022/09/20 03:41:40;;;;;;;;;;;8.00;99.90;;;;;;4988854;28;20065;-40
2022/09/20 03:44:21;;;;;;;3.00;1.45;;;8.00;99.90;;;;;;4987197;28;20009;-41
2022/09/20 03:46:50;;;;;;;2.08;1.80;;;8.00;99.90;;;;;;4984974;28;20037;-38
2022/09/20 03:49:49;;;;;;;2.35;1.88;;;8.10;99.90;;;;;;4988156;28;20030;-40
2022/09/20 03:52:49;;;;;;;4.97;2.15;;;8.10;99.90;;;;;;4987723;28;20507;-37
2022/09/20 03:55:37;;;;;;;1.83;1.70;;;8.10;99.90;;;;;;4985367;28;20475;-37
2022/09/20 03:58:28;;;;;;;2.28;1.98;;;8.10;99.90;;;;;;4989084;28;20041;-40
2022/09/20 04:01:03;;;;;;;2.78;2.15;;;8.20;99.90;;;;;;4986800;28;20068;-40
2022/09/20 04:03:37;;;;;;;3.50;1.95;;;8.20;99.90;;;;;;4988403;28;20578;-35
2022/09/20 04:06:27;;;;;;;2.35;2.20;;;8.20;99.90;;;;;;4987381;28;20038;-38
2022/09/20 04:09:27;;;;;;;3.25;2.10;;;8.20;99.90;;;;;;4990074;28;20057;-39
2022/09/20 04:12:04;;;;;;;3.78;1.98;;;8.20;99.90;;;;;;4988522;28;20109;-39
2022/09/20 04:14:54;;;;;;;3.67;2.57;;;8.20;99.90;;;;;;4990548;28;20084;-38
2022/09/20 04:17:44;;;;;;;3.92;2.00;;;8.20;99.90;;;;;;4988083;28;20038;-39
2022/09/20 04:20:33;;;;;;;2.47;2.28;;;8.20;99.90;;;;;;4988839;28;20153;-40
2022/09/20 04:23:07;;;;;;;4.13;1.90;;;8.20;99.90;;;;;;4990549;28;20034;-39
2022/09/20 04:25:43;;;;;;;3.22;2.08;;;8.20;99.90;;;;;;4986760;28;20034;-41
2022/09/20 04:28:16;;;;;;;3.97;2.33;;;8.20;99.90;;;;;;4987268;28;20032;-40
2022/09/20 04:30:45;;;;;;;2.50;2.30;;;8.20;99.90;;;;;;4988351;28;20036;-40
2022/09/20 04:33:32;;;;;;;2.13;2.03;;;8.20;99.90;;;;;;4987346;28;20034;-35
2022/09/20 04:39:12;;;;;;;4.20;2.40;;;8.20;99.90;;;;;;4987239;28;20040;-41
2022/09/20 04:42:07;;;;;;;6.32;2.45;;;8.20;99.90;;;;;;4984745;28;20030;-38
2022/09/20 04:44:51;;;;;;;2.40;2.00;;;8.10;99.90;;;;;;4990152;28;20034;-37
2022/09/20 04:47:23;;;;;;;2.30;2.10;;;8.10;99.90;;;;;;4985925;28;20084;-39
2022/09/20 04:50:17;;;;;;;3.58;2.00;;;8.10;99.90;;;;;;4986400;28;20049;-40
2022/09/20 04:52:48;;;;;;;2.85;2.53;;;8.20;99.90;;;;;;4988505;28;20170;-40
2022/09/20 04:55:44;;;;;;;4.70;1.88;;;8.20;99.90;;;;;;4986721;28;20369;-36
2022/09/20 04:58:32;;;;;;;2.95;1.88;;;8.20;99.90;;;;;;4987050;28;20692;-38
2022/09/20 05:01:28;;;;;;;3.95;2.08;;;8.30;99.90;;;;;;4984532;28;20074;-38
2022/09/20 05:04:28;;;;;;;2.72;2.30;;;8.20;99.90;;;;;;4987348;28;20064;-40
2022/09/20 05:07:03;;;;;;;3.70;1.73;;;8.20;99.90;;;;;;4985248;28;20477;-40
2022/09/20 05:09:52;;;;;;;3.58;2.17;;;8.20;99.90;;;;;;4987578;28;20079;-38
2022/09/20 05:12:46;;;;;;;6.57;2.22;;;8.30;99.90;;;;;;4985370;28;20080;-39
2022/09/20 05:15:36;;;;;;;4.43;2.03;;;8.20;99.90;;;;;;4985253;28;20088;-36
2022/09/20 05:18:11;;;;;;;3.50;1.73;;;8.20;99.90;;;;;;4987779;28;20039;-38
2022/09/20 05:20:48;;;;;;;3.80;2.10;;;8.20;99.90;;;;;;4984889;28;20045;-36
2022/09/20 05:23:20;;;;;;;3.38;1.92;;;8.30;99.90;;;;;;4984619;28;20176;-39
2022/09/20 05:26:07;;;;;;;3.45;2.03;;;8.30;99.90;;;;;;4986274;28;20053;-41
2022/09/20 05:28:42;;;;;;;5.47;3.42;;;8.30;99.90;;;;;;4985180;28;20038;-38
2022/09/20 05:31:21;;;;;;;19.27;10.20;;;8.40;99.90;;;;;;4986345;28;20046;-40
2022/09/20 05:34:17;;;;;;;13.32;7.75;;;8.30;99.90;;;;;;4986805;28;20483;-38
2022/09/20 05:36:56;;;;;;;8.43;4.72;;;8.40;99.90;;;;;;4985585;28;21233;-41
2022/09/20 05:39:32;;;;;;;4.85;3.40;;;8.50;99.90;;;;;;4986421;28;20068;-41
2022/09/20 05:42:22;;;;;;;4.72;3.03;;;8.50;99.90;;;;;;4985889;28;20037;-40
2022/09/20 05:45:11;;;;;;;6.00;3.67;;;8.50;99.90;;;;;;4985789;28;20030;-41
2022/09/20 05:48:01;;;;;;;2.88;2.67;;;8.50;99.90;;;;;;4987828;28;20445;-40
2022/09/20 05:50:44;;;;;;;4.75;2.63;;;8.50;99.90;;;;;;4985628;28;20142;-35
2022/09/20 05:53:38;;;;;;;2.90;2.17;;;8.50;99.90;;;;;;4984077;28;20519;-39
2022/09/20 05:56:33;;;;;;;6.88;4.47;;;8.60;99.90;;;;;;4984155;28;20037;-40
2022/09/20 05:59:40;;;;;;;7.72;6.32;;;8.60;99.90;;;;;;4967862;28;20030;-39
2022/09/20 06:02:17;;;;;;;10.35;5.60;;;8.60;99.90;;;;;;4933842;28;20151;-40
2022/09/20 06:04:49;;;;;;;4.97;3.50;;;8.60;99.90;;;;;;4929371;28;20089;-37
2022/09/20 06:08:13;;;;;;;9.82;5.47;;;8.60;99.90;;;;;;4964920;28;20179;-40
2022/09/20 06:11:00;;;;;;;11.52;5.78;;;8.60;99.90;;;;;;4962501;28;20164;-40
2022/09/20 06:13:50;;;;;;;6.45;4.72;;;8.70;99.90;;;;;;4985059;28;20031;-40
2022/09/20 06:16:37;;;;;;;5.03;3.28;;;8.60;99.90;;;;;;4985054;28;20057;-36
2022/09/20 06:19:18;;;;;;;5.80;4.95;;;8.70;99.90;;;;;;4988730;28;20121;-40
2022/09/20 06:21:55;;;;;;;4.03;3.00;;;8.70;99.90;;;;;;4985575;28;20022;-36
2022/09/20 06:24:32;;;;;;;5.07;2.60;;;8.70;99.90;;;;;;4985137;28;20033;-38
2022/09/20 06:27:07;;;;;;;4.10;2.08;;;8.70;99.90;;;;;;4985937;28;20510;-40
2022/09/20 06:29:37;;;;;;;2.85;2.25;;;8.70;99.90;;;;;;4990053;28;20062;-36
2022/09/20 06:32:03;;;;;;;2.92;1.98;;;8.70;99.90;;;;;;4984902;28;20133;-40
2022/09/20 06:34:29;;;;;;;2.63;2.10;;;8.70;99.90;;;;;;4983017;28;20040;-39
2022/09/20 06:43:13;;;;;;;2.50;2.30;;;8.80;99.90;;;;;;4985038;28;20038;-40
2022/09/20 06:45:40;;;;;;;3.55;2.50;;;8.80;99.90;;;;;;4985654;28;20423;-40
2022/09/20 06:48:07;;;;;;;4.93;2.10;;;8.80;99.90;;;;;;4983967;28;20474;-35
2022/09/20 06:50:35;;;;;;;4.68;1.90;;;8.80;99.90;;;;;;4985985;28;20384;-38
2022/09/20 06:53:01;;;;;;;2.75;2.17;;;8.90;99.90;;;;;;4986337;28;20439;-37
2022/09/20 06:55:33;;;;;;;3.83;2.08;;;8.90;99.90;;;;;;4984487;28;20109;-39
2022/09/20 06:57:59;;;;;;;3.03;2.15;;;8.90;99.90;;;;;;4984009;28;20168;-38
2022/09/20 07:00:25;;;;;;;2.25;1.98;;;9.00;99.90;;;;;;4966711;28;20030;-37
2022/09/20 07:02:50;;;;;;;2.83;2.10;;;9.00;99.90;;;;;;4987976;28;20373;-38
2022/09/20 07:05:18;;;;;;;3.47;2.10;;;9.00;99.90;;;;;;4992647;28;20515;-39
2022/09/20 07:07:43;;;;;;;6.45;2.30;;;9.00;99.90;;;;;;4986047;28;20119;-39
2022/09/20 07:10:10;;;;;;;4.25;2.20;;;9.00;99.90;;;;;;4984049;28;20378;-38
2022/09/20 07:12:36;;;;;;;2.28;2.05;;;9.10;99.90;;;;;;4985680;28;20022;-40
2022/09/20 07:15:02;;;;;;;4.32;2.30;;;9.20;99.90;;;;;;4985332;28;20034;-40
2022/09/20 07:17:28;;;;;;;4.63;2.28;;;9.30;99.90;;;;;;4982624;28;20034;-41
2022/09/20 07:19:55;;;;;;;5.80;2.47;;;9.30;99.90;;;;;;4985206;28;20475;-37
2022/09/20 07:22:21;;;;;;;3.40;2.40;;;9.40;99.90;;;;;;4985178;28;20030;-35
2022/09/20 07:24:47;;;;;;;3.88;2.20;;;9.40;99.90;;;;;;4969563;28;20178;-39
2022/09/20 07:27:12;;;;;;;4.38;2.10;;;9.40;99.90;;;;;;4984386;28;20058;-39
2022/09/20 07:29:39;;;;;;;1.75;1.60;;;9.30;99.90;;;;;;4982970;28;20034;-40
2022/09/20 07:32:05;;;;;;;4.60;1.92;;;9.30;99.90;;;;;;4983911;28;20030;-38
2022/09/20 07:34:31;;;;;;;2.72;2.20;;;9.30;99.90;;;;;;4983309;28;20652;-40
2022/09/20 07:36:58;;;;;;;5.55;2.50;;;9.30;99.90;;;;;;4985914;28;20278;-39
2022/09/20 07:39:24;;;;;;;1.10;0.80;;;9.40;99.90;;;;;;4981620;28;20049;-37
2022/09/20 07:41:50;;;;;;;2.72;2.10;;;9.40;99.90;;;;;;4985103;28;20038;-37
2022/09/20 07:44:23;;;;;;;5.53;2.90;;;9.40;99.90;;;;;;4983873;28;20150;-39
2022/09/20 07:47:01;;;;;;;2.35;2.15;;;9.30;99.90;;;;;;4989678;28;20149;-40
2022/09/20 07:49:30;;;;;;;3.38;2.55;;;9.40;99.90;;;;;;5000404;28;20044;-40
2022/09/20 07:51:56;;;;;;;2.80;2.55;;;9.50;99.90;;;;;;4993754;28;20507;-39
2022/09/20 07:54:22;;;;;;;4.40;2.50;;;9.60;99.90;;;;;;4990902;28;20108;-39
2022/09/20 07:56:48;;;;;;;2.67;2.35;;;9.70;99.90;;;;;;4998112;28;20124;-39
2022/09/20 07:59:14;;;;;;;2.45;2.25;;;9.80;99.90;;;;;;4993170;28;20041;-39
2022/09/20 08:01:40;;;;;;;7.68;2.05;;;9.70;99.90;;;;;;4996441;28;20034;-40
2022/09/20 08:04:07;;;;;;;4.05;2.58;;;9.70;99.90;;;;;;4996896;28;20161;-38
2022/09/20 08:06:41;;;;;;;5.70;2.85;;;9.60;99.90;;;;;;5003256;28;20034;-41
2022/09/20 08:09:08;;;;;;;5.85;2.90;;;9.70;99.90;;;;;;5002021;28;20399;-40
2022/09/20 08:11:35;;;;;;;5.05;3.45;;;9.70;99.90;;;;;;4996591;28;20026;-39
2022/09/20 08:14:02;;;;;;;3.78;2.75;;;9.80;99.90;;;;;;5006677;28;20454;-40
2022/09/20 08:16:29;;;;;;;3.63;2.38;;;9.80;99.90;;;;;;5006772;28;20065;-39
2022/09/20 08:18:59;;;;;;;3.30;2.65;;;9.70;99.90;;;;;;5003168;28;20125;-38
2022/09/20 08:21:30;;;;;;;3.42;2.80;;;9.70;99.90;;;;;;5000925;28;20022;-40
2022/09/20 08:23:57;;;;;;;6.70;3.20;;;9.80;99.90;;;;;;4998881;28;20034;-38
2022/09/20 08:26:25;;;;;;;8.52;2.75;;;9.80;99.90;;;;;;4992409;28;20153;-37
2022/09/20 08:28:54;;;;;;;5.47;3.15;;;9.70;99.90;;;;;;4998951;28;20109;-40
2022/09/20 08:31:23;;;;;;;4.75;3.00;;;9.70;99.90;;;;;;5000471;28;20034;-40
2022/09/20 08:33:50;;;;;;;5.13;3.08;;;9.70;99.90;;;;;;4996808;28;20045;-40
2022/09/20 08:36:21;;;;;;;5.93;3.35;;;9.80;99.90;;;;;;4996721;28;20044;-41
2022/09/20 08:38:47;;;;;;;6.82;3.17;;;9.80;99.90;;;;;;4996504;28;20073;-39
2022/09/20 08:41:18;;;;;;;6.65;3.15;;;9.90;99.90;;;;;;4997405;28;20110;-40
2022/09/20 08:44:23;;;;;;;2.88;2.58;;;10.10;99.90;;;;;;5008464;28;20419;-40
2022/09/20 08:47:01;;;;;;;3.47;2.75;;;10.00;99.90;;;;;;4970518;28;20038;-40
2022/09/20 08:49:28;;;;;;;4.60;2.53;;;10.10;99.90;;;;;;4997358;28;20075;-38
2022/09/20 08:51:57;;;;;;;9.18;4.18;;;10.30;99.90;;;;;;4993022;28;20057;-40
2022/09/20 08:54:26;;;;;;;6.15;3.53;;;10.20;99.90;;;;;;4987711;28;20034;-39
2022/09/20 08:56:52;;;;;;;4.82;3.15;;;10.30;99.90;;;;;;4989270;28;20050;-38
2022/09/20 08:59:20;;;;;;;7.32;3.10;;;10.50;99.90;;;;;;4991318;28;20041;-36
2022/09/20 09:01:48;;;;;;;4.82;2.40;;;10.40;99.90;;;;;;4996387;28;20038;-41
2022/09/20 09:04:17;;;;;;;6.97;3.20;;;10.40;99.90;;;;;;4998576;28;20394;-40
2022/09/20 09:06:44;;;;;;;4.13;2.72;;;10.30;99.90;;;;;;4996697;28;20288;-40
2022/09/20 09:09:23;;;;;;;2.13;1.90;;;10.30;99.90;;;;;;4995955;28;20060;-38
2022/09/20 09:11:51;;;;;;;3.75;2.70;;;10.20;99.90;;;;;;4994304;28;20030;-39
2022/09/20 09:14:46;;;;;;;7.55;4.07;;;10.20;99.90;;;;;;4993273;28;20027;-38
2022/09/20 09:17:34;;;;;;;3.65;3.00;;;10.20;99.90;;;;;;4994039;28;20046;-40
2022/09/20 09:20:21;;;;;;;3.00;2.13;;;10.30;99.90;;;;;;4993727;28;20121;-40
2022/09/20 09:22:56;;;;;;;7.20;3.13;;;10.10;99.90;;;;;;4986790;28;20038;-40
2022/09/20 09:25:32;;;;;;;4.90;2.70;;;10.20;99.90;;;;;;4993166;28;21265;-39
2022/09/20 09:28:22;;;;;;;5.60;2.88;;;10.20;99.90;;;;;;4993364;28;20116;-39
2022/09/20 09:30:47;;;;;;;4.80;1.98;;;10.30;99.90;;;;;;4989230;28;20030;-41
2022/09/20 09:33:30;;;;;;;6.75;2.03;;;10.10;99.90;;;;;;4996080;28;20034;-39
2022/09/20 09:36:23;;;;;;;2.95;2.35;;;10.20;99.90;;;;;;4996248;28;20030;-39
2022/09/20 09:38:49;;;;;;;5.03;2.60;;;10.20;99.90;;;;;;4995157;28;20440;-37
2022/09/20 09:41:23;;;;;;;4.20;2.70;;;10.20;99.90;;;;;;5002800;28;20033;-40
2022/09/20 09:44:15;;;;;;;4.07;2.40;;;10.20;99.90;;;;;;4994305;28;20120;-40
2022/09/20 09:46:40;;;;;;;4.70;2.78;;;10.20;99.90;;;;;;4989201;28;20108;-40
2022/09/20 09:49:08;;;;;;;3.72;3.10;;;10.40;99.90;;;;;;4986477;28;20108;-40
2022/09/20 09:51:35;;;;;;;5.22;2.25;;;10.40;99.90;;;;;;4986245;28;20038;-40
2022/09/20 09:54:03;;;;;;;3.83;1.70;;;10.60;99.90;;;;;;4988931;28;20507;-40
2022/09/20 09:57:00;;;;;;;7.28;2.65;;;10.80;99.90;;;;;;4996357;28;20034;-40
2022/09/20 09:59:56;;;;;;;4.05;2.67;;;11.00;99.90;;;;;;4997257;28;20041;-40
2022/09/20 10:02:30;;;;;;;5.60;2.78;;;11.00;99.90;;;;;;4992485;28;20030;-38
2022/09/20 10:05:09;;;;;;;1.83;1.73;;;11.00;99.90;;;;;;4992410;28;20034;-37
2022/09/20 10:07:51;;;;;;;5.28;3.20;;;11.20;99.90;;;;;;4991167;28;20030;-39
2022/09/20 10:10:38;;;;;;;6.18;2.70;;;11.50;99.90;;;;;;4992175;28;20368;-39
2022/09/20 10:13:27;;;;;;;5.35;2.90;;;11.40;99.90;;;;;;4988385;28;20042;-37
2022/09/20 10:16:02;;;;;;;2.45;1.60;;;11.60;99.90;;;;;;4985514;28;20041;-38
2022/09/20 10:18:46;;;;;;;2.97;2.10;;;11.50;99.90;;;;;;4986834;28;20092;-40
2022/09/20 10:21:27;;;;;;;3.60;1.95;;;11.40;99.90;;;;;;4987822;28;20610;-40
2022/09/20 10:24:22;;;;;;;3.40;2.10;;;11.60;99.90;;;;;;4986339;28;20129;-38
2022/09/20 10:27:35;;;;;;;2.30;2.10;;;11.70;99.90;;;;;;4986547;28;20030;-40
2022/09/20 10:30:11;;;;;;;4.45;2.05;;;11.80;99.90;;;;;;4931118;28;20069;-40
2022/09/20 10:33:02;;;;;;;4.40;1.75;;;11.70;99.90;;;;;;4986060;28;20048;-40
2022/09/20 10:35:42;;;;;;;3.45;1.63;;;11.40;99.90;;;;;;4985208;28;20065;-37
2022/09/20 10:38:22;;;;;;;6.95;1.70;;;11.30;99.90;;;;;;4985201;28;20041;-39
2022/09/20 10:44:01;;;;;;;4.65;1.60;;;11.40;99.90;;;;;;4989560;28;20110;-38
2022/09/20 10:46:55;;;;;;;3.22;0.90;;;11.40;99.90;;;;;;4991863;28;20068;-40
2022/09/20 10:49:41;;;;;;;2.58;1.70;;;11.40;99.90;;;;;;4977107;28;20046;-41
2022/09/20 10:52:30;;;;;;;3.05;1.88;;;11.70;99.90;;;;;;4987511;28;20046;-40
2022/09/20 10:55:31;;;;;;;5.43;1.52;;;11.80;99.90;;;;;;4984026;28;20046;-38
2022/09/20 10:58:30;;;;;;;1.52;1.38;;;11.80;99.90;;;;;;4986404;28;20436;-40
2022/09/20 11:01:22;;;;;;;1.80;1.27;;;11.80;99.90;;;;;;4984775;28;20044;-40
2022/09/20 11:04:19;;;;;;;5.40;1.55;;;12.00;99.90;;;;;;4983567;28;21201;-38
2022/09/20 11:07:12;;;;;;;2.10;1.15;;;12.10;99.90;;;;;;4987159;28;20037;-40
2022/09/20 11:09:43;;;;;;;1.92;1.45;;;11.90;99.90;;;;;;4987478;28;20026;-40
2022/09/20 11:12:37;;;;;;;3.38;1.70;;;12.20;99.90;;;;;;4987023;28;20030;-38
2022/09/20 11:15:14;;;;;;;3.78;1.85;;;12.30;99.90;;;;;;4972896;28;20050;-39
2022/09/20 11:18:21;;;;;;;4.68;1.92;;;12.30;99.90;;;;;;4985832;28;20049;-38
2022/09/20 11:20:54;;;;;;;5.30;1.20;;;12.00;99.90;;;;;;4983561;28;20035;-39
2022/09/20 11:23:43;;;;;;;3.55;1.20;;;12.00;99.60;;;;;;4983948;28;20026;-38
2022/09/20 11:26:38;;;;;;;6.03;1.80;;;12.10;98.70;;;;;;4984862;28;20783;-40
2022/09/20 11:29:29;;;;;;;2.50;1.55;;;12.30;98.50;;;;;;4990251;28;20038;-39
2022/09/20 11:32:07;;;;;;;3.53;1.58;;;12.50;95.90;;;;;;4990137;28;20097;-41
2022/09/20 11:34:55;;;;;;;2.00;1.20;;;12.70;96.60;;;;;;4988929;28;20042;-39
2022/09/20 11:37:24;;;;;;;5.50;1.70;;;12.80;91.80;;;;;;4986725;28;20522;-41
2022/09/20 11:39:53;;;;;;;1.45;1.35;;;13.10;99.90;;;;;;4986865;28;20390;-38
2022/09/20 11:42:23;;;;;;;1.67;1.00;;;12.90;90.70;;;;;;4990019;28;20080;-37
2022/09/20 11:44:49;;;;;;;2.63;1.63;;;12.90;91.10;;;;;;4986928;28;20701;-39
2022/09/20 11:47:24;;;;;;;1.77;1.35;;;12.80;96.20;;;;;;4988693;28;20026;-40
2022/09/20 11:50:28;;;;;;;2.85;1.40;;;12.70;95.00;;;;;;4989211;28;20034;-36
2022/09/20 11:53:16;;;;;;;4.03;1.48;;;12.80;96.70;;;;;;4988346;28;20527;-37
2022/09/20 11:55:50;;;;;;;;;;;13.10;95.10;;;;;;4989103;28;20038;-36
2022/09/20 11:58:21;;;;;;;2.67;1.48;;;13.00;89.20;;;;;;4988099;28;19929;-41
2022/09/20 12:00:50;;;;;;;1.48;1.38;;;12.80;91.40;;;;;;4987416;28;20038;-40
2022/09/20 12:03:40;;;;;;;1.00;0.85;;;12.80;92.70;;;;;;4989307;28;20026;-40
2022/09/20 12:06:19;;;;;;;2.13;1.30;;;12.70;91.20;;;;;;4978913;28;20077;-40
2022/09/20 12:08:48;;;;;;;2.33;1.40;;;12.60;92.60;;;;;;4987252;28;20127;-40
2022/09/20 12:11:15;;;;;;;3.17;1.30;;;12.60;93.90;;;;;;4989048;28;20031;-40
2022/09/20 12:13:51;;;;;;;3.90;1.52;;;12.60;94.40;;;;;;4996144;28;20038;-41
2022/09/20 12:16:36;;;;;;;2.97;1.13;;;12.60;95.20;;;;;;4994320;28;20034;-40
2022/09/20 12:19:06;;;;;;;1.48;1.00;;;12.50;93.90;;;;;;4987523;28;20038;-39
2022/09/20 12:22:14;;;;;;;4.25;1.35;;;12.40;92.10;;;;;;4989160;28;20659;-40
2022/09/20 12:24:40;;;;;;;2.65;1.40;;;12.40;93.80;;;;;;4988439;28;20037;-41
2022/09/20 12:27:41;;;;;;;5.07;1.20;;;12.40;90.70;;;;;;4988809;28;20030;-36
2022/09/20 12:30:19;;;;;;;1.75;1.30;;;12.40;93.70;;;;;;4992446;28;20029;-38
2022/09/20 12:32:51;;;;;;;2.20;1.55;;;12.50;92.50;;;;;;4989771;28;20562;-41
2022/09/20 12:35:43;;;;;;;2.45;1.60;;;12.60;91.70;;;;;;4987568;28;20030;-41
2022/09/20 12:38:31;;;;;;;2.83;1.10;;;12.90;92.70;;;;;;4963421;28;20046;-40
2022/09/20 12:41:04;;;;;;;3.05;1.20;;;13.10;93.70;;;;;;4987729;28;20034;-38
2022/09/20 12:43:31;;;;;;;2.58;1.20;;;13.10;91.40;;;;;;4998808;28;20383;-41
2022/09/20 12:45:57;;;;;;;3.33;1.50;;;13.20;93.00;;;;;;4997533;28;20138;-41
2022/09/20 12:48:24;;;;;;;3.05;1.00;;;13.10;93.30;;;;;;4991201;28;20497;-41
2022/09/20 12:54:02;;;;;;;2.55;1.55;;;12.90;93.40;;;;;;5003348;28;20065;-41
2022/09/20 12:56:28;;;;;;;2.00;1.45;;;12.90;90.90;;;;;;4984657;28;20026;-38
2022/09/20 12:58:56;;;;;;;3.75;1.40;;;12.80;91.90;;;;;;4996310;28;20046;-41
2022/09/20 13:01:21;;;;;;;2.30;1.10;;;12.70;93.00;;;;;;4999100;28;20185;-40
2022/09/20 13:03:48;;;;;;;1.30;1.10;;;12.70;90.50;;;;;;4997302;28;20030;-41
2022/09/20 13:06:15;;;;;;;1.70;1.25;;;12.60;92.50;;;;;;4998978;28;20026;-40
2022/09/20 13:09:07;;;;;;;2.03;1.40;;;12.50;93.10;;;;;;4992751;28;20423;-41
2022/09/20 13:11:54;;;;;;;2.22;0.90;;;12.40;94.30;;;;;;4996673;28;20029;-39
2022/09/20 13:14:25;;;;;;;3.60;1.77;;;12.30;93.70;;;;;;4993195;28;20125;-40
2022/09/20 13:17:05;;;;;;;1.20;0.93;;;12.30;93.40;;;;;;4995452;28;20284;-41
2022/09/20 13:19:57;;;;;;;1.40;1.20;;;12.20;91.60;;;;;;4998622;28;20117;-40
2022/09/20 13:22:27;;;;;;;2.75;1.20;;;12.20;92.40;;;;;;4992053;28;20046;-40
2022/09/20 13:24:56;;;;;;;1.08;1.02;;;12.20;92.00;;;;;;4999283;28;20042;-38
2022/09/20 13:27:59;;;;;;;3.08;1.05;;;12.20;90.50;;;;;;4998523;28;20171;-40
2022/09/20 13:30:30;;;;;;;1.15;1.00;;;12.20;91.60;;;;;;4970636;28;20052;-41
2022/09/20 13:32:56;;;;;;;2.50;1.20;;;12.30;95.00;;;;;;5000871;28;20360;-38
2022/09/20 13:35:28;;;;;;;4.05;1.13;;;12.50;92.80;;;;;;4993497;28;20025;-38
2022/09/20 13:37:57;;;;;;;1.98;1.10;;;12.50;86.10;;;;;;4997344;28;20126;-41
2022/09/20 13:40:32;;;;;;;3.60;1.40;;;12.70;87.80;;;;;;4978513;28;20046;-41
2022/09/20 13:43:01;;;;;;;3.13;1.10;;;12.80;87.10;;;;;;4992782;28;20034;-41
2022/09/20 13:45:27;;;;;;;0.68;0.63;;;13.20;82.30;;;;;;4993310;28;20440;-40
2022/09/20 13:47:54;;;;;;;3.35;0.85;;;13.00;75.90;;;;;;4992330;28;20049;-41
2022/09/20 13:50:39;;;;;;;7.65;1.40;;;12.80;79.30;;;;;;4998137;28;20034;-41
2022/09/20 13:53:15;;;;;;;1.90;0.90;;;12.60;81.10;;;;;;4999220;28;20054;-41
2022/09/20 13:55:42;;;;;;;0.95;0.95;;;12.60;86.50;;;;;;4979621;28;20060;-39
2022/09/20 13:58:31;;;;;;;1.27;0.80;;;12.60;89.10;;;;;;4994600;28;20038;-39
2022/09/20 14:01:03;;;;;;;2.35;1.15;;;12.50;78.70;;;;;;4998980;28;20042;-40
2022/09/20 14:03:32;;;;;;;2.25;1.08;;;12.40;71.50;;;;;;4992370;28;20037;-39
2022/09/20 14:06:08;;;;;;;1.60;0.80;;;12.50;73.70;;;;;;4996106;28;20084;-39